sensor_id;sensor_type;location;lat;lon;timestamp;pressure;altitude;pressure_sealevel;temperature;humidity
42621;BME280;28252;53.336;-6.298;2023-04-09T00:00:09;101473.47;;;23.57;100.00
42621;BME280;28252;53.336;-6.298;2023-04-09T00:00:43;101468.88;;;23.57;100.00
42621;BME280;28252;53.336;-6.298;2023-04-09T00:01:16;101472.59;;;23.56;100.00
42621;BME280;28252;53.336;-6.298;2023-04-09T00:01:49;101469.88;;;23.56;100.00
42621;BME280;28252;53.336;-6.298;2023-04-09T00:02:23;101475.31;;;23.56;100.00
42621;BME280;28252;53.336;-6.298;2023-04-09T00:02:56;101477.38;;;23.54;100.00
42621;BME280;28252;53.336;-6.298;2023-04-09T00:03:29;101477.22;;;23.56;100.00
42621;BME280;28252;53.336;-6.298;2023-04-09T00:04:02;101472.78;;;23.55;100.00
42621;BME280;28252;53.336;-6.298;2023-04-09T00:04:36;101471.78;;;23.56;100.00
42621;BME280;28252;53.336;-6.298;2023-04-09T00:05:11;101479.09;;;23.55;100.00
42621;BME280;28252;53.336;-6.298;2023-04-09T00:05:48;101481.81;;;23.55;100.00
42621;BME280;28252;53.336;-6.298;2023-04-09T00:06:24;101470.94;;;23.55;100.00
42621;BME280;28252;53.336;-6.298;2023-04-09T00:07:00;101471.94;;;23.54;100.00
42621;BME280;28252;53.336;-6.298;2023-04-09T00:07:34;101471.94;;;23.54;100.00
42621;BME280;28252;53.336;-6.298;2023-04-09T00:08:09;101470.06;;;23.55;100.00
42621;BME280;28252;53.336;-6.298;2023-04-09T00:08:45;101471.94;;;23.54;100.00
42621;BME280;28252;53.336;-6.298;2023-04-09T00:09:15;101470.25;;;23.53;100.00
42621;BME280;28252;53.336;-6.298;2023-04-09T00:09:50;101462.09;;;23.53;100.00
42621;BME280;28252;53.336;-6.298;2023-04-09T00:10:23;101461.06;;;23.54;100.00
42621;BME280;28252;53.336;-6.298;2023-04-09T00:10:58;101462.09;;;23.53;100.00
42621;BME280;28252;53.336;-6.298;2023-04-09T00:11:32;101458.50;;;23.53;100.00
42621;BME280;28252;53.336;-6.298;2023-04-09T00:12:05;101453.94;;;23.53;100.00
42621;BME280;28252;53.336;-6.298;2023-04-09T00:12:43;101454.13;;;23.52;100.00
42621;BME280;28252;53.336;-6.298;2023-04-09T00:13:17;101448.50;;;23.53;100.00
42621;BME280;28252;53.336;-6.298;2023-04-09T00:13:53;101446.78;;;23.52;100.00
42621;BME280;28252;53.336;-6.298;2023-04-09T00:14:24;101445.78;;;23.53;100.00
42621;BME280;28252;53.336;-6.298;2023-04-09T00:14:55;101444.09;;;23.52;100.00
42621;BME280;28252;53.336;-6.298;2023-04-09T00:15:26;101452.25;;;23.52;100.00
42621;BME280;28252;53.336;-6.298;2023-04-09T00:16:02;101433.38;;;23.50;100.00
42621;BME280;28252;53.336;-6.298;2023-04-09T00:16:33;101438.66;;;23.52;100.00
42621;BME280;28252;53.336;-6.298;2023-04-09T00:17:08;101435.94;;;23.52;100.00
42621;BME280;28252;53.336;-6.298;2023-04-09T00:17:39;101419.59;;;23.52;100.00
42621;BME280;28252;53.336;-6.298;2023-04-09T00:18:11;101425.03;;;23.52;100.00
42621;BME280;28252;53.336;-6.298;2023-04-09T00:18:42;101425.88;;;23.53;100.00
42621;BME280;28252;53.336;-6.298;2023-04-09T00:19:15;101425.03;;;23.52;100.00
42621;BME280;28252;53.336;-6.298;2023-04-09T00:19:46;101419.59;;;23.52;100.00
42621;BME280;28252;53.336;-6.298;2023-04-09T00:20:17;101425.03;;;23.52;100.00
42621;BME280;28252;53.336;-6.298;2023-04-09T00:20:50;101422.31;;;23.52;100.00
42621;BME280;28252;53.336;-6.298;2023-04-09T00:21:23;101427.59;;;23.54;100.00
42621;BME280;28252;53.336;-6.298;2023-04-09T00:21:54;101425.88;;;23.53;100.00
42621;BME280;28252;53.336;-6.298;2023-04-09T00:22:25;101423.00;;;23.54;100.00
42621;BME280;28252;53.336;-6.298;2023-04-09T00:22:56;101426.75;;;23.53;100.00
42621;BME280;28252;53.336;-6.298;2023-04-09T00:23:29;101427.59;;;23.54;100.00
42621;BME280;28252;53.336;-6.298;2023-04-09T00:24:06;101418.59;;;23.53;100.00
42621;BME280;28252;53.336;-6.298;2023-04-09T00:24:39;101423.00;;;23.54;100.00
42621;BME280;28252;53.336;-6.298;2023-04-09T00:25:11;101423.00;;;23.54;100.00
42621;BME280;28252;53.336;-6.298;2023-04-09T00:25:49;101415.88;;;23.53;100.00
42621;BME280;28252;53.336;-6.298;2023-04-09T00:26:22;101421.31;;;23.53;100.00
42621;BME280;28252;53.336;-6.298;2023-04-09T00:26:55;101417.56;;;23.54;100.00
42621;BME280;28252;53.336;-6.298;2023-04-09T00:27:29;101420.28;;;23.54;100.00
42621;BME280;28252;53.336;-6.298;2023-04-09T00:28:04;101421.13;;;23.55;100.00
42621;BME280;28252;53.336;-6.298;2023-04-09T00:28:40;101417.56;;;23.54;100.00
42621;BME280;28252;53.336;-6.298;2023-04-09T00:29:17;101412.13;;;23.54;100.00
42621;BME280;28252;53.336;-6.298;2023-04-09T00:29:50;101421.13;;;23.55;100.00
42621;BME280;28252;53.336;-6.298;2023-04-09T00:30:24;101419.25;;;23.55;100.00
42621;BME280;28252;53.336;-6.298;2023-04-09T00:30:57;101419.25;;;23.55;100.00
42621;BME280;28252;53.336;-6.298;2023-04-09T00:31:28;101415.69;;;23.55;100.00
42621;BME280;28252;53.336;-6.298;2023-04-09T00:32:04;101411.09;;;23.55;100.00
42621;BME280;28252;53.336;-6.298;2023-04-09T00:32:42;101419.25;;;23.55;100.00
42621;BME280;28252;53.336;-6.298;2023-04-09T00:33:15;101415.69;;;23.55;100.00
42621;BME280;28252;53.336;-6.298;2023-04-09T00:33:53;101412.13;;;23.54;100.00
42621;BME280;28252;53.336;-6.298;2023-04-09T00:34:26;101419.44;;;23.54;100.00
42621;BME280;28252;53.336;-6.298;2023-04-09T00:35:03;101412.13;;;23.54;100.00
42621;BME280;28252;53.336;-6.298;2023-04-09T00:35:34;101418.41;;;23.55;100.00
42621;BME280;28252;53.336;-6.298;2023-04-09T00:36:12;101421.13;;;23.55;100.00
42621;BME280;28252;53.336;-6.298;2023-04-09T00:36:46;101423.00;;;23.54;100.00
42621;BME280;28252;53.336;-6.298;2023-04-09T00:37:17;101419.25;;;23.55;100.00
42621;BME280;28252;53.336;-6.298;2023-04-09T00:37:52;101424.72;;;23.55;100.00
42621;BME280;28252;53.336;-6.298;2023-04-09T00:38:23;101422.16;;;23.54;100.00
42621;BME280;28252;53.336;-6.298;2023-04-09T00:38:57;101428.44;;;23.54;100.00
42621;BME280;28252;53.336;-6.298;2023-04-09T00:39:28;101433.69;;;23.56;100.00
42621;BME280;28252;53.336;-6.298;2023-04-09T00:40:01;101436.41;;;23.56;100.00
42621;BME280;28252;53.336;-6.298;2023-04-09T00:40:35;101434.72;;;23.55;100.00
42621;BME280;28252;53.336;-6.298;2023-04-09T00:41:11;101433.88;;;23.54;100.00
42621;BME280;28252;53.336;-6.298;2023-04-09T00:41:48;101439.31;;;23.54;100.00
42621;BME280;28252;53.336;-6.298;2023-04-09T00:42:19;101433.88;;;23.54;100.00
42621;BME280;28252;53.336;-6.298;2023-04-09T00:42:51;101440.34;;;23.53;100.00
42621;BME280;28252;53.336;-6.298;2023-04-09T00:43:27;101440.34;;;23.53;100.00
42621;BME280;28252;53.336;-6.298;2023-04-09T00:44:03;101437.63;;;23.53;100.00
42621;BME280;28252;53.336;-6.298;2023-04-09T00:44:37;101427.75;;;23.52;100.00
42621;BME280;28252;53.336;-6.298;2023-04-09T00:45:11;101434.91;;;23.53;100.00
42621;BME280;28252;53.336;-6.298;2023-04-09T00:45:51;101434.91;;;23.53;100.00
42621;BME280;28252;53.336;-6.298;2023-04-09T00:46:22;101430.31;;;23.54;100.00
42621;BME280;28252;53.336;-6.298;2023-04-09T00:47:04;101433.19;;;23.52;100.00
42621;BME280;28252;53.336;-6.298;2023-04-09T00:47:37;101432.19;;;23.53;100.00
42621;BME280;28252;53.336;-6.298;2023-04-09T00:48:13;101431.16;;;23.54;100.00
42621;BME280;28252;53.336;-6.298;2023-04-09T00:48:50;101426.75;;;23.53;100.00
42621;BME280;28252;53.336;-6.298;2023-04-09T00:49:23;101426.56;;;23.55;100.00
42621;BME280;28252;53.336;-6.298;2023-04-09T00:49:56;101433.88;;;23.54;100.00
42621;BME280;28252;53.336;-6.298;2023-04-09T00:50:31;101424.03;;;23.53;100.00
42621;BME280;28252;53.336;-6.298;2023-04-09T00:51:05;101431.16;;;23.54;100.00
42621;BME280;28252;53.336;-6.298;2023-04-09T00:51:42;101422.16;;;23.54;100.00
42621;BME280;28252;53.336;-6.298;2023-04-09T00:52:19;101426.75;;;23.53;100.00
42621;BME280;28252;53.336;-6.298;2023-04-09T00:52:51;101415.88;;;23.53;100.00
42621;BME280;28252;53.336;-6.298;2023-04-09T00:53:24;101420.44;;;23.53;100.00
42621;BME280;28252;53.336;-6.298;2023-04-09T00:53:57;101424.03;;;23.53;100.00
42621;BME280;28252;53.336;-6.298;2023-04-09T00:54:28;101421.31;;;23.53;100.00
42621;BME280;28252;53.336;-6.298;2023-04-09T00:55:07;101425.88;;;23.53;100.00
42621;BME280;28252;53.336;-6.298;2023-04-09T00:55:39;101414.16;;;23.52;100.00
42621;BME280;28252;53.336;-6.298;2023-04-09T00:56:13;101421.31;;;23.53;100.00
42621;BME280;28252;53.336;-6.298;2023-04-09T00:56:47;101415.88;;;23.53;100.00
42621;BME280;28252;53.336;-6.298;2023-04-09T00:57:18;101410.44;;;23.53;100.00
42621;BME280;28252;53.336;-6.298;2023-04-09T00:57:54;101414.16;;;23.52;100.00
42621;BME280;28252;53.336;-6.298;2023-04-09T00:58:28;101419.59;;;23.52;100.00
42621;BME280;28252;53.336;-6.298;2023-04-09T00:59:01;101416.88;;;23.52;100.00
42621;BME280;28252;53.336;-6.298;2023-04-09T00:59:37;101415.19;;;23.51;100.00
42621;BME280;28252;53.336;-6.298;2023-04-09T01:00:15;101409.75;;;23.51;100.00
42621;BME280;28252;53.336;-6.298;2023-04-09T01:00:46;101415.19;;;23.51;100.00
42621;BME280;28252;53.336;-6.298;2023-04-09T01:01:22;101412.47;;;23.51;100.00
42621;BME280;28252;53.336;-6.298;2023-04-09T01:01:55;101415.19;;;23.51;100.00
42621;BME280;28252;53.336;-6.298;2023-04-09T01:02:26;101412.47;;;23.51;100.00
42621;BME280;28252;53.336;-6.298;2023-04-09T01:03:05;101409.75;;;23.51;100.00
42621;BME280;28252;53.336;-6.298;2023-04-09T01:03:41;101400.75;;;23.50;100.00
42621;BME280;28252;53.336;-6.298;2023-04-09T01:04:15;101410.78;;;23.50;100.00
42621;BME280;28252;53.336;-6.298;2023-04-09T01:04:51;101399.91;;;23.50;100.00
42621;BME280;28252;53.336;-6.298;2023-04-09T01:05:30;101405.34;;;23.50;100.00
42621;BME280;28252;53.336;-6.298;2023-04-09T01:06:09;101407.19;;;23.49;100.00
42621;BME280;28252;53.336;-6.298;2023-04-09T01:06:52;101405.34;;;23.50;100.00
42621;BME280;28252;53.336;-6.298;2023-04-09T01:08:50;101391.09;;;23.48;100.00
42621;BME280;28252;53.336;-6.298;2023-04-09T01:10:01;101396.53;;;23.48;100.00
42621;BME280;28252;53.336;-6.298;2023-04-09T01:12:21;101398.53;;;23.46;100.00
42621;BME280;28252;53.336;-6.298;2023-04-09T01:13:11;101390.38;;;23.46;100.00
42621;BME280;28252;53.336;-6.298;2023-04-09T01:13:53;101389.38;;;23.47;100.00
42621;BME280;28252;53.336;-6.298;2023-04-09T01:15:21;101394.81;;;23.47;100.00
42621;BME280;28252;53.336;-6.298;2023-04-09T01:16:00;101389.38;;;23.47;100.00
42621;BME280;28252;53.336;-6.298;2023-04-09T01:16:36;101390.22;;;23.47;100.00
42621;BME280;28252;53.336;-6.298;2023-04-09T01:17:32;101396.69;;;23.46;100.00
42621;BME280;28252;53.336;-6.298;2023-04-09T01:18:04;101395.66;;;23.47;100.00
42621;BME280;28252;53.336;-6.298;2023-04-09T01:18:41;101400.25;;;23.47;100.00
42621;BME280;28252;53.336;-6.298;2023-04-09T01:21:33;101389.38;;;23.47;100.00
42621;BME280;28252;53.336;-6.298;2023-04-09T01:22:09;101389.38;;;23.47;100.00
42621;BME280;28252;53.336;-6.298;2023-04-09T01:23:33;101388.53;;;23.46;100.00
42621;BME280;28252;53.336;-6.298;2023-04-09T01:24:49;101390.38;;;23.46;100.00
42621;BME280;28252;53.336;-6.298;2023-04-09T01:27:05;101380.56;;;23.45;100.00
42621;BME280;28252;53.336;-6.298;2023-04-09T01:28:45;101387.66;;;23.46;100.00
42621;BME280;28252;53.336;-6.298;2023-04-09T01:29:22;101382.22;;;23.46;100.00
42621;BME280;28252;53.336;-6.298;2023-04-09T01:29:59;101375.97;;;23.45;100.00
42621;BME280;28252;53.336;-6.298;2023-04-09T01:30:34;101381.41;;;23.45;100.00
42621;BME280;28252;53.336;-6.298;2023-04-09T01:31:09;101377.66;;;23.46;100.00
42621;BME280;28252;53.336;-6.298;2023-04-09T01:31:43;101376.78;;;23.46;100.00
42621;BME280;28252;53.336;-6.298;2023-04-09T01:32:21;101380.56;;;23.45;100.00
42621;BME280;28252;53.336;-6.298;2023-04-09T01:32:55;101371.53;;;23.44;100.00
42621;BME280;28252;53.336;-6.298;2023-04-09T01:33:31;101371.53;;;23.44;100.00
42621;BME280;28252;53.336;-6.298;2023-04-09T01:34:08;101368.81;;;23.44;100.00
42621;BME280;28252;53.336;-6.298;2023-04-09T01:34:40;101367.13;;;23.43;100.00
42621;BME280;28252;53.336;-6.298;2023-04-09T01:35:13;101371.53;;;23.44;100.00
42621;BME280;28252;53.336;-6.298;2023-04-09T01:35:47;101368.81;;;23.44;100.00
42621;BME280;28252;53.336;-6.298;2023-04-09T01:36:22;101367.97;;;23.44;100.00
42621;BME280;28252;53.336;-6.298;2023-04-09T01:36:57;101367.97;;;23.44;100.00
42621;BME280;28252;53.336;-6.298;2023-04-09T01:37:33;101364.25;;;23.45;100.00
42621;BME280;28252;53.336;-6.298;2023-04-09T01:38:06;101366.97;;;23.45;100.00
42621;BME280;28252;53.336;-6.298;2023-04-09T01:38:42;101362.53;;;23.44;100.00
42621;BME280;28252;53.336;-6.298;2023-04-09T01:39:16;101363.22;;;23.46;100.00
42621;BME280;28252;53.336;-6.298;2023-04-09T01:39:50;101364.25;;;23.45;100.00
42621;BME280;28252;53.336;-6.298;2023-04-09T01:40:23;101363.38;;;23.44;100.00
42621;BME280;28252;53.336;-6.298;2023-04-09T01:40:56;101361.53;;;23.45;100.00
42621;BME280;28252;53.336;-6.298;2023-04-09T01:41:30;101366.09;;;23.44;100.00
42621;BME280;28252;53.336;-6.298;2023-04-09T01:42:07;101359.66;;;23.45;100.00
42621;BME280;28252;53.336;-6.298;2023-04-09T01:42:48;101358.81;;;23.45;100.00
42621;BME280;28252;53.336;-6.298;2023-04-09T01:43:21;101360.66;;;23.44;100.00
42621;BME280;28252;53.336;-6.298;2023-04-09T01:43:56;101360.66;;;23.44;100.00
42621;BME280;28252;53.336;-6.298;2023-04-09T01:44:30;101357.09;;;23.44;100.00
42621;BME280;28252;53.336;-6.298;2023-04-09T01:45:06;101358.97;;;23.43;100.00
42621;BME280;28252;53.336;-6.298;2023-04-09T01:45:40;101357.09;;;23.44;100.00
42621;BME280;28252;53.336;-6.298;2023-04-09T01:46:20;101354.38;;;23.44;100.00
42621;BME280;28252;53.336;-6.298;2023-04-09T01:46:53;101363.59;;;23.43;100.00
42621;BME280;28252;53.336;-6.298;2023-04-09T01:47:25;101358.16;;;23.43;100.00
42621;BME280;28252;53.336;-6.298;2023-04-09T01:49:21;101347.44;;;23.41;100.00
42621;BME280;28252;53.336;-6.298;2023-04-09T01:49:55;101347.44;;;23.41;100.00
42621;BME280;28252;53.336;-6.298;2023-04-09T01:50:26;101349.13;;;23.42;100.00
42621;BME280;28252;53.336;-6.298;2023-04-09T01:50:59;101341.84;;;23.43;100.00
42621;BME280;28252;53.336;-6.298;2023-04-09T01:51:34;101344.56;;;23.43;100.00
42621;BME280;28252;53.336;-6.298;2023-04-09T01:52:05;101344.56;;;23.43;100.00
42621;BME280;28252;53.336;-6.298;2023-04-09T01:52:42;101340.13;;;23.42;100.00
42621;BME280;28252;53.336;-6.298;2023-04-09T01:53:16;101338.25;;;23.42;100.00
42621;BME280;28252;53.336;-6.298;2023-04-09T01:53:49;101333.84;;;23.41;100.00
42621;BME280;28252;53.336;-6.298;2023-04-09T01:54:20;101342.00;;;23.41;100.00
42621;BME280;28252;53.336;-6.298;2023-04-09T01:54:51;101324.81;;;23.41;100.00
42621;BME280;28252;53.336;-6.298;2023-04-09T01:55:25;101334.69;;;23.42;100.00
42621;BME280;28252;53.336;-6.298;2023-04-09T01:56:00;101332.81;;;23.42;100.00
42621;BME280;28252;53.336;-6.298;2023-04-09T01:57:16;101331.97;;;23.42;100.00
42621;BME280;28252;53.336;-6.298;2023-04-09T01:57:47;101323.81;;;23.42;100.00
42621;BME280;28252;53.336;-6.298;2023-04-09T01:58:26;101319.38;;;23.41;100.00
42621;BME280;28252;53.336;-6.298;2023-04-09T01:58:57;101319.38;;;23.41;100.00
42621;BME280;28252;53.336;-6.298;2023-04-09T01:59:32;101313.94;;;23.41;100.00
42621;BME280;28252;53.336;-6.298;2023-04-09T02:00:06;101313.13;;;23.40;100.00
42621;BME280;28252;53.336;-6.298;2023-04-09T02:00:46;101311.22;;;23.41;100.00
42621;BME280;28252;53.336;-6.298;2023-04-09T02:01:19;101303.06;;;23.41;100.00
42621;BME280;28252;53.336;-6.298;2023-04-09T02:01:59;101301.41;;;23.40;100.00
42621;BME280;28252;53.336;-6.298;2023-04-09T02:02:34;101306.66;;;23.41;100.00
42621;BME280;28252;53.336;-6.298;2023-04-09T02:03:07;101297.63;;;23.41;100.00
42621;BME280;28252;53.336;-6.298;2023-04-09T02:03:46;101290.53;;;23.40;100.00
42621;BME280;28252;53.336;-6.298;2023-04-09T02:04:53;101278.63;;;23.41;100.00
42621;BME280;28252;53.336;-6.298;2023-04-09T02:05:28;101279.66;;;23.40;100.00
42621;BME280;28252;53.336;-6.298;2023-04-09T02:06:04;101274.22;;;23.40;100.00
42621;BME280;28252;53.336;-6.298;2023-04-09T02:07:16;101271.50;;;23.40;100.00
42621;BME280;28252;53.336;-6.298;2023-04-09T02:07:51;101274.22;;;23.40;100.00
42621;BME280;28252;53.336;-6.298;2023-04-09T02:08:26;101272.50;;;23.39;100.00
42621;BME280;28252;53.336;-6.298;2023-04-09T02:08:59;101275.22;;;23.39;100.00
42621;BME280;28252;53.336;-6.298;2023-04-09T02:09:44;101263.34;;;23.40;100.00
42621;BME280;28252;53.336;-6.298;2023-04-09T02:10:21;101261.63;;;23.39;100.00
42621;BME280;28252;53.336;-6.298;2023-04-09T02:10:55;101257.03;;;23.39;100.00
42621;BME280;28252;53.336;-6.298;2023-04-09T02:11:30;101263.34;;;23.40;100.00
42621;BME280;28252;53.336;-6.298;2023-04-09T02:12:04;101266.91;;;23.40;100.00
42621;BME280;28252;53.336;-6.298;2023-04-09T02:12:38;101269.63;;;23.40;100.00
42621;BME280;28252;53.336;-6.298;2023-04-09T02:13:10;101267.75;;;23.41;100.00
42621;BME280;28252;53.336;-6.298;2023-04-09T02:13:48;101252.47;;;23.40;100.00
42621;BME280;28252;53.336;-6.298;2023-04-09T02:14:24;101260.63;;;23.40;100.00
42621;BME280;28252;53.336;-6.298;2023-04-09T02:14:58;101264.19;;;23.40;100.00
42621;BME280;28252;53.336;-6.298;2023-04-09T02:15:33;101262.47;;;23.39;100.00
42621;BME280;28252;53.336;-6.298;2023-04-09T02:16:09;101254.50;;;23.38;100.00
42621;BME280;28252;53.336;-6.298;2023-04-09T02:16:41;101263.69;;;23.37;100.00
42621;BME280;28252;53.336;-6.298;2023-04-09T02:17:14;101265.38;;;23.38;100.00
42621;BME280;28252;53.336;-6.298;2023-04-09T02:17:48;101274.41;;;23.38;100.00
42621;BME280;28252;53.336;-6.298;2023-04-09T02:18:26;101269.97;;;23.37;100.00
42621;BME280;28252;53.336;-6.298;2023-04-09T02:19:00;101266.25;;;23.38;100.00
42621;BME280;28252;53.336;-6.298;2023-04-09T02:19:43;101269.97;;;23.37;100.00
42621;BME280;28252;53.336;-6.298;2023-04-09T02:20:17;101270.81;;;23.38;100.00
42621;BME280;28252;53.336;-6.298;2023-04-09T02:20:54;101271.84;;;23.37;100.00
42621;BME280;28252;53.336;-6.298;2023-04-09T02:21:28;101269.97;;;23.37;100.00
42621;BME280;28252;53.336;-6.298;2023-04-09T02:22:03;101274.56;;;23.37;100.00
42621;BME280;28252;53.336;-6.298;2023-04-09T02:23:26;101265.38;;;23.38;100.00
42621;BME280;28252;53.336;-6.298;2023-04-09T02:23:57;101272.69;;;23.37;100.00
42621;BME280;28252;53.336;-6.298;2023-04-09T02:24:30;101263.69;;;23.37;100.00
42621;BME280;28252;53.336;-6.298;2023-04-09T02:25:03;101269.97;;;23.37;100.00
42621;BME280;28252;53.336;-6.298;2023-04-09T02:25:40;101269.13;;;23.37;100.00
42621;BME280;28252;53.336;-6.298;2023-04-09T02:26:13;101271.84;;;23.37;100.00
42621;BME280;28252;53.336;-6.298;2023-04-09T02:26:47;101265.56;;;23.36;100.00
42621;BME280;28252;53.336;-6.298;2023-04-09T02:27:18;101276.44;;;23.36;100.00
42621;BME280;28252;53.336;-6.298;2023-04-09T02:27:56;101262.84;;;23.36;100.00
42621;BME280;28252;53.336;-6.298;2023-04-09T02:28:27;101262.84;;;23.36;100.00
42621;BME280;28252;53.336;-6.298;2023-04-09T02:29:05;101263.69;;;23.37;100.00
42621;BME280;28252;53.336;-6.298;2023-04-09T02:29:38;101266.41;;;23.37;100.00
42621;BME280;28252;53.336;-6.298;2023-04-09T02:30:12;101270.81;;;23.38;100.00
42621;BME280;28252;53.336;-6.298;2023-04-09T02:30:43;101262.84;;;23.36;100.00
42621;BME280;28252;53.336;-6.298;2023-04-09T02:31:16;101266.41;;;23.37;100.00
42621;BME280;28252;53.336;-6.298;2023-04-09T02:31:49;101269.13;;;23.37;100.00
42621;BME280;28252;53.336;-6.298;2023-04-09T02:32:22;101265.56;;;23.36;100.00
42621;BME280;28252;53.336;-6.298;2023-04-09T02:32:56;101266.41;;;23.37;100.00
42621;BME280;28252;53.336;-6.298;2023-04-09T02:33:29;101267.44;;;23.36;100.00
42621;BME280;28252;53.336;-6.298;2023-04-09T02:34:02;101263.69;;;23.37;100.00
42621;BME280;28252;53.336;-6.298;2023-04-09T02:34:38;101273.72;;;23.36;100.00
42621;BME280;28252;53.336;-6.298;2023-04-09T02:35:10;101270.81;;;23.38;100.00
42621;BME280;28252;53.336;-6.298;2023-04-09T02:35:41;101277.28;;;23.37;100.00
42621;BME280;28252;53.336;-6.298;2023-04-09T02:36:19;101277.28;;;23.37;100.00
42621;BME280;28252;53.336;-6.298;2023-04-09T02:36:55;101280.00;;;23.37;100.00
42621;BME280;28252;53.336;-6.298;2023-04-09T02:37:26;101285.44;;;23.37;100.00
42621;BME280;28252;53.336;-6.298;2023-04-09T02:37:59;101282.72;;;23.37;100.00
42621;BME280;28252;53.336;-6.298;2023-04-09T02:38:32;101285.44;;;23.37;100.00
42621;BME280;28252;53.336;-6.298;2023-04-09T02:39:05;101286.44;;;23.36;100.00
42621;BME280;28252;53.336;-6.298;2023-04-09T02:39:36;101288.16;;;23.37;100.00
42621;BME280;28252;53.336;-6.298;2023-04-09T02:40:10;101286.28;;;23.37;100.00
42621;BME280;28252;53.336;-6.298;2023-04-09T02:40:41;101285.44;;;23.37;100.00
42621;BME280;28252;53.336;-6.298;2023-04-09T02:41:14;101279.16;;;23.36;100.00
42621;BME280;28252;53.336;-6.298;2023-04-09T02:41:48;101282.72;;;23.37;100.00
42621;BME280;28252;53.336;-6.298;2023-04-09T02:42:21;101289.00;;;23.37;100.00
42621;BME280;28252;53.336;-6.298;2023-04-09T02:42:54;101288.16;;;23.37;100.00
42621;BME280;28252;53.336;-6.298;2023-04-09T02:43:30;101282.72;;;23.37;100.00
42621;BME280;28252;53.336;-6.298;2023-04-09T02:44:03;101277.28;;;23.37;100.00
42621;BME280;28252;53.336;-6.298;2023-04-09T02:44:36;101275.41;;;23.37;100.00
42621;BME280;28252;53.336;-6.298;2023-04-09T02:45:12;101268.09;;;23.38;100.00
42621;BME280;28252;53.336;-6.298;2023-04-09T02:45:45;101271.69;;;23.38;100.00
42621;BME280;28252;53.336;-6.298;2023-04-09T02:46:26;101275.41;;;23.37;100.00
42621;BME280;28252;53.336;-6.298;2023-04-09T02:47:00;101275.22;;;23.39;100.00
42621;BME280;28252;53.336;-6.298;2023-04-09T02:47:31;101269.97;;;23.37;100.00
42621;BME280;28252;53.336;-6.298;2023-04-09T02:48:02;101269.13;;;23.37;100.00
42621;BME280;28252;53.336;-6.298;2023-04-09T02:48:41;101268.09;;;23.38;100.00
42621;BME280;28252;53.336;-6.298;2023-04-09T02:49:16;101268.09;;;23.38;100.00
42621;BME280;28252;53.336;-6.298;2023-04-09T02:49:49;101269.13;;;23.37;100.00
42621;BME280;28252;53.336;-6.298;2023-04-09T02:50:24;101283.38;;;23.39;100.00
42621;BME280;28252;53.336;-6.298;2023-04-09T02:51:03;101267.06;;;23.39;100.00
42621;BME280;28252;53.336;-6.298;2023-04-09T02:51:39;101276.25;;;23.38;100.00
42621;BME280;28252;53.336;-6.298;2023-04-09T02:52:17;101275.22;;;23.39;100.00
42621;BME280;28252;53.336;-6.298;2023-04-09T02:52:53;101271.69;;;23.38;100.00
42621;BME280;28252;53.336;-6.298;2023-04-09T02:53:25;101273.53;;;23.38;100.00
42621;BME280;28252;53.336;-6.298;2023-04-09T02:54:52;101270.81;;;23.38;100.00
42621;BME280;28252;53.336;-6.298;2023-04-09T02:55:23;101264.34;;;23.39;100.00
42621;BME280;28252;53.336;-6.298;2023-04-09T02:55:54;101261.63;;;23.39;100.00
42621;BME280;28252;53.336;-6.298;2023-04-09T02:56:25;101267.06;;;23.39;100.00
42621;BME280;28252;53.336;-6.298;2023-04-09T02:56:56;101268.78;;;23.40;100.00
42621;BME280;28252;53.336;-6.298;2023-04-09T02:57:30;101274.22;;;23.40;100.00
42621;BME280;28252;53.336;-6.298;2023-04-09T02:58:07;101279.66;;;23.40;100.00
42621;BME280;28252;53.336;-6.298;2023-04-09T02:58:40;101273.34;;;23.39;100.00
42621;BME280;28252;53.336;-6.298;2023-04-09T02:59:14;101275.22;;;23.39;100.00
42621;BME280;28252;53.336;-6.298;2023-04-09T02:59:50;101275.22;;;23.39;100.00
42621;BME280;28252;53.336;-6.298;2023-04-09T03:00:23;101277.13;;;23.38;100.00
42621;BME280;28252;53.336;-6.298;2023-04-09T03:00:59;101264.34;;;23.39;100.00
42621;BME280;28252;53.336;-6.298;2023-04-09T03:01:33;101262.47;;;23.39;100.00
42621;BME280;28252;53.336;-6.298;2023-04-09T03:02:04;101255.38;;;23.38;100.00
42621;BME280;28252;53.336;-6.298;2023-04-09T03:02:37;101261.63;;;23.39;100.00
42621;BME280;28252;53.336;-6.298;2023-04-09T03:03:10;101267.91;;;23.39;100.00
42621;BME280;28252;53.336;-6.298;2023-04-09T03:03:43;101250.75;;;23.39;100.00
42621;BME280;28252;53.336;-6.298;2023-04-09T03:04:17;101258.09;;;23.38;100.00
42621;BME280;28252;53.336;-6.298;2023-04-09T03:04:48;101247.22;;;23.38;100.00
42621;BME280;28252;53.336;-6.298;2023-04-09T03:05:19;101256.19;;;23.39;100.00
42621;BME280;28252;53.336;-6.298;2023-04-09T03:05:50;101255.38;;;23.38;100.00
42621;BME280;28252;53.336;-6.298;2023-04-09T03:06:24;101254.50;;;23.38;100.00
42621;BME280;28252;53.336;-6.298;2023-04-09T03:06:58;101252.66;;;23.38;100.00
42621;BME280;28252;53.336;-6.298;2023-04-09T03:07:31;101250.75;;;23.39;100.00
42621;BME280;28252;53.336;-6.298;2023-04-09T03:09:03;101251.59;;;23.39;100.00
42621;BME280;28252;53.336;-6.298;2023-04-09T03:09:39;101256.19;;;23.39;100.00
42621;BME280;28252;53.336;-6.298;2023-04-09T03:10:14;101253.47;;;23.39;100.00
42621;BME280;28252;53.336;-6.298;2023-04-09T03:10:48;101253.66;;;23.37;100.00
42621;BME280;28252;53.336;-6.298;2023-04-09T03:11:21;101253.66;;;23.37;100.00
42621;BME280;28252;53.336;-6.298;2023-04-09T03:11:52;101241.94;;;23.37;100.00
42621;BME280;28252;53.336;-6.298;2023-04-09T03:12:31;101245.69;;;23.36;100.00